Time;durP1;ratioP1;P1;durP2;ratioP2;P2;SDS_P1;SDS_P2;PMS_P1;PMS_P2;Temp;Humidity;BMP_temperature;BMP_pressure;BME280_temperature;BME280_humidity;BME280_pressure;Samples;Min_cycle;Max_cycle;Signal;HPM_P1;HPM_P2
2023/11/05 00:00:25;;;;;;;0.08;0.08;;;21.50;48.70;;;;;;5011132;28;20204;-56
2023/11/05 00:02:56;;;;;;;0.00;0.00;;;21.50;48.70;;;;;;5010413;28;20204;-57
2023/11/05 00:05:27;;;;;;;0.00;0.00;;;21.50;48.70;;;;;;5011024;28;20258;-53
2023/11/05 00:07:57;;;;;;;0.10;0.10;;;21.50;48.70;;;;;;5010541;28;20196;-53
2023/11/05 00:10:28;;;;;;;0.10;0.10;;;21.60;48.70;;;;;;5024990;28;20667;-53
2023/11/05 00:13:00;;;;;;;0.08;0.08;;;21.50;48.60;;;;;;5026941;28;20689;-50
2023/11/05 00:15:31;;;;;;;0.00;0.00;;;21.60;48.70;;;;;;5011091;28;20204;-51
2023/11/05 00:18:02;;;;;;;0.00;0.00;;;21.60;48.70;;;;;;5010721;28;20649;-48
2023/11/05 00:20:32;;;;;;;0.00;0.00;;;21.60;48.60;;;;;;5011035;28;20200;-50
2023/11/05 00:23:03;;;;;;;0.10;0.10;;;21.60;48.70;;;;;;5011688;28;20193;-52
2023/11/05 00:25:33;;;;;;;0.00;0.00;;;21.60;48.70;;;;;;5010577;28;20197;-50
2023/11/05 00:28:06;;;;;;;0.00;0.00;;;21.60;48.70;;;;;;5010550;28;20667;-48
2023/11/05 00:30:38;;;;;;;0.00;0.00;;;21.70;48.70;;;;;;5018314;28;20258;-54
2023/11/05 00:33:09;;;;;;;0.00;0.00;;;21.70;48.70;;;;;;5035569;23;20243;-50
2023/11/05 00:35:39;;;;;;;0.00;0.00;;;21.70;48.70;;;;;;5010477;28;20201;-55
2023/11/05 00:38:10;;;;;;;0.00;0.00;;;21.70;48.70;;;;;;5007011;28;20204;-55
2023/11/05 00:40:40;;;;;;;0.00;0.00;;;21.70;48.70;;;;;;4991791;28;20202;-54
2023/11/05 00:43:13;;;;;;;0.00;0.00;;;21.70;48.70;;;;;;5001574;28;20221;-54
2023/11/05 00:45:43;;;;;;;0.00;0.00;;;21.70;48.70;;;;;;4995356;28;20208;-55
2023/11/05 00:48:14;;;;;;;0.00;0.00;;;21.70;48.60;;;;;;4994912;28;20193;-54
2023/11/05 00:50:45;;;;;;;0.03;0.03;;;21.70;48.60;;;;;;4995338;28;20193;-55
2023/11/05 00:53:15;;;;;;;0.10;0.10;;;21.80;48.60;;;;;;4994353;28;20221;-53
2023/11/05 00:55:46;;;;;;;0.08;0.08;;;21.70;48.50;;;;;;4994964;28;20672;-54
2023/11/05 00:58:18;;;;;;;0.03;0.03;;;21.70;48.40;;;;;;4993851;28;20194;-54
2023/11/05 01:00:49;;;;;;;0.00;0.00;;;21.80;48.40;;;;;;4993300;28;20194;-55
2023/11/05 01:03:20;;;;;;;0.08;0.08;;;21.80;48.40;;;;;;4990786;28;20225;-55
2023/11/05 01:05:50;;;;;;;0.00;0.00;;;21.90;48.40;;;;;;4982634;28;20201;-55
2023/11/05 01:08:21;;;;;;;0.08;0.08;;;21.90;48.40;;;;;;4993958;28;20646;-49
2023/11/05 01:10:52;;;;;;;0.00;0.00;;;21.90;48.40;;;;;;5002242;28;20672;-55
2023/11/05 01:13:24;;;;;;;0.00;0.00;;;21.90;48.30;;;;;;5011407;28;20229;-52
2023/11/05 01:15:55;;;;;;;0.00;0.00;;;21.90;48.30;;;;;;4994278;28;20209;-55
2023/11/05 01:18:26;;;;;;;0.05;0.05;;;21.90;48.30;;;;;;4993753;28;20193;-53
2023/11/05 01:20:56;;;;;;;0.00;0.00;;;21.90;48.30;;;;;;4994229;28;20193;-54
2023/11/05 01:23:27;;;;;;;0.10;0.10;;;21.90;48.30;;;;;;4994438;28;20244;-55
2023/11/05 01:25:58;;;;;;;0.00;0.00;;;21.90;48.30;;;;;;4993606;28;20198;-55
2023/11/05 01:28:30;;;;;;;0.00;0.00;;;21.90;48.30;;;;;;4993817;28;20293;-55
2023/11/05 01:31:01;;;;;;;0.00;0.00;;;21.90;48.30;;;;;;4994361;28;20268;-55
2023/11/05 01:33:32;;;;;;;0.00;0.00;;;22.00;48.30;;;;;;5000260;23;20229;-48
2023/11/05 01:36:02;;;;;;;0.00;0.00;;;21.90;48.30;;;;;;5008800;28;20672;-53
2023/11/05 01:38:33;;;;;;;0.00;0.00;;;22.00;48.30;;;;;;5009085;28;20182;-53
2023/11/05 01:41:03;;;;;;;0.10;0.10;;;22.00;48.20;;;;;;4994372;28;20198;-54
2023/11/05 01:43:36;;;;;;;0.00;0.00;;;22.00;48.10;;;;;;5005494;28;20221;-55
2023/11/05 01:46:07;;;;;;;0.08;0.08;;;22.00;48.10;;;;;;5013434;28;20201;-53
2023/11/05 01:48:38;;;;;;;0.03;0.03;;;22.00;48.10;;;;;;5012747;28;20204;-49
2023/11/05 01:51:15;;;;;;;0.10;0.10;;;22.00;48.10;;;;;;5012449;28;20200;-51
2023/11/05 01:53:48;;;;;;;0.00;0.00;;;22.00;48.00;;;;;;5012190;28;20270;-52
2023/11/05 01:56:19;;;;;;;0.08;0.08;;;22.00;48.00;;;;;;5012959;28;20668;-50
2023/11/05 01:58:53;;;;;;;0.10;0.10;;;22.00;48.00;;;;;;5013316;28;20595;-55
2023/11/05 02:01:24;;;;;;;0.10;0.10;;;22.00;48.10;;;;;;5012599;28;20287;-54
2023/11/05 02:03:55;;;;;;;0.00;0.00;;;22.00;48.00;;;;;;5012714;28;20212;-56
2023/11/05 02:06:26;;;;;;;0.10;0.10;;;22.00;48.10;;;;;;5012797;28;20205;-56
2023/11/05 02:08:56;;;;;;;0.00;0.00;;;22.00;48.00;;;;;;5012121;28;20680;-52
2023/11/05 02:11:27;;;;;;;0.00;0.00;;;22.00;48.00;;;;;;5012927;28;20651;-56
2023/11/05 02:14:00;;;;;;;0.10;0.10;;;22.00;48.00;;;;;;5012399;28;20255;-53
2023/11/05 02:16:33;;;;;;;0.10;0.10;;;22.00;48.00;;;;;;5013264;28;20199;-55
2023/11/05 02:19:03;;;;;;;0.03;0.03;;;22.00;48.00;;;;;;5023068;28;20679;-56
2023/11/05 02:21:41;;;;;;;0.00;0.00;;;22.00;48.00;;;;;;5012733;28;20197;-50
2023/11/05 02:24:13;;;;;;;0.00;0.00;;;22.00;48.00;;;;;;5011289;28;20204;-56
2023/11/05 02:26:44;;;;;;;0.00;0.00;;;22.00;48.00;;;;;;5013281;28;20622;-54
2023/11/05 02:29:19;;;;;;;0.00;0.00;;;22.00;48.00;;;;;;5013093;28;20200;-56
2023/11/05 02:31:49;;;;;;;0.00;0.00;;;22.00;48.00;;;;;;5012967;28;20228;-55
2023/11/05 02:34:20;;;;;;;0.05;0.05;;;21.90;48.00;;;;;;5013506;28;20606;-53
2023/11/05 02:36:51;;;;;;;0.00;0.00;;;21.90;48.00;;;;;;5012773;28;20204;-53
2023/11/05 02:39:23;;;;;;;0.05;0.05;;;21.90;48.00;;;;;;5012757;28;20193;-55
2023/11/05 02:41:54;;;;;;;0.00;0.00;;;22.00;48.10;;;;;;5012847;28;20649;-55
2023/11/05 02:44:25;;;;;;;0.10;0.10;;;22.00;48.10;;;;;;5012759;28;20217;-55
2023/11/05 02:46:56;;;;;;;0.00;0.00;;;22.00;48.00;;;;;;5013027;28;20193;-53
2023/11/05 02:49:27;;;;;;;0.10;0.10;;;22.00;48.00;;;;;;5012878;28;20223;-55
2023/11/05 02:51:57;;;;;;;0.10;0.10;;;22.00;48.00;;;;;;5012183;28;20215;-54
2023/11/05 02:54:32;;;;;;;0.10;0.10;;;22.00;47.90;;;;;;5012088;28;20212;-55
2023/11/05 02:57:03;;;;;;;0.10;0.10;;;21.90;47.90;;;;;;5012674;28;20287;-54
2023/11/05 02:59:33;;;;;;;0.00;0.00;;;21.90;47.90;;;;;;5012347;28;20624;-54
2023/11/05 03:02:04;;;;;;;0.05;0.05;;;21.90;47.90;;;;;;5010013;28;20661;-52
2023/11/05 03:04:35;;;;;;;0.00;0.00;;;21.90;47.90;;;;;;5011881;28;20604;-54
2023/11/05 03:07:05;;;;;;;0.10;0.10;;;21.90;47.90;;;;;;5012039;28;20192;-53
2023/11/05 03:09:38;;;;;;;0.00;0.00;;;21.90;48.00;;;;;;5012177;28;20216;-56
2023/11/05 03:12:09;;;;;;;0.10;0.10;;;21.90;48.00;;;;;;5028931;28;20204;-56
2023/11/05 03:14:40;;;;;;;0.10;0.10;;;21.80;47.90;;;;;;5032211;28;20638;-55
2023/11/05 03:17:10;;;;;;;0.10;0.10;;;21.90;48.00;;;;;;5031727;28;20631;-54
2023/11/05 03:19:41;;;;;;;0.00;0.00;;;21.80;47.80;;;;;;5031687;28;20199;-56
2023/11/05 03:22:12;;;;;;;0.00;0.00;;;21.80;47.80;;;;;;5031379;28;20200;-55
2023/11/05 03:24:45;;;;;;;0.00;0.00;;;21.70;47.80;;;;;;5031616;28;20224;-56
2023/11/05 03:27:16;;;;;;;0.10;0.10;;;21.70;47.80;;;;;;5031967;28;20266;-55
2023/11/05 03:29:46;;;;;;;0.05;0.05;;;21.70;47.90;;;;;;5028934;28;20573;-53
2023/11/05 03:32:18;;;;;;;0.00;0.00;;;21.60;48.00;;;;;;4997054;28;20198;-56
2023/11/05 03:34:49;;;;;;;0.10;0.10;;;21.60;47.90;;;;;;4992890;28;20603;-55
2023/11/05 03:37:20;;;;;;;0.00;0.00;;;21.60;48.00;;;;;;4992233;28;20685;-51
2023/11/05 03:39:52;;;;;;;0.00;0.00;;;21.60;48.00;;;;;;4991899;28;20662;-52
2023/11/05 03:42:23;;;;;;;0.00;0.00;;;21.60;48.00;;;;;;4992513;28;20201;-55
2023/11/05 03:44:54;;;;;;;0.00;0.00;;;21.50;48.00;;;;;;4992272;28;20705;-55
2023/11/05 03:47:25;;;;;;;0.00;0.00;;;21.50;48.10;;;;;;4992493;28;20691;-54
2023/11/05 03:49:55;;;;;;;0.00;0.00;;;21.50;48.10;;;;;;5031093;28;20200;-53
2023/11/05 03:52:26;;;;;;;0.00;0.00;;;21.60;48.20;;;;;;5031031;28;20233;-52
2023/11/05 03:54:59;;;;;;;0.00;0.00;;;21.50;48.10;;;;;;5030858;28;20220;-50
2023/11/05 03:57:29;;;;;;;0.00;0.00;;;21.50;48.20;;;;;;5031322;28;20462;-54
2023/11/05 04:00:00;;;;;;;0.00;0.00;;;21.50;48.20;;;;;;5026939;28;20208;-54
2023/11/05 04:02:31;;;;;;;0.00;0.00;;;21.50;48.20;;;;;;5011821;28;20208;-49
2023/11/05 04:05:01;;;;;;;0.00;0.00;;;21.50;48.20;;;;;;5011382;28;20224;-56
2023/11/05 04:07:32;;;;;;;0.00;0.00;;;21.50;48.20;;;;;;5011112;28;20204;-55
2023/11/05 04:10:04;;;;;;;0.00;0.00;;;21.50;48.20;;;;;;5010828;28;20196;-49
2023/11/05 04:12:35;;;;;;;0.03;0.03;;;21.50;48.20;;;;;;5011703;28;20224;-55
2023/11/05 04:15:06;;;;;;;0.10;0.10;;;21.40;48.20;;;;;;5011986;28;20312;-52
2023/11/05 04:17:37;;;;;;;0.10;0.10;;;21.40;48.20;;;;;;5012220;28;20207;-54
2023/11/05 04:20:08;;;;;;;0.10;0.10;;;21.40;48.20;;;;;;5025060;28;20191;-50
2023/11/05 04:22:39;;;;;;;0.00;0.00;;;21.40;48.20;;;;;;5035061;28;20211;-47
2023/11/05 04:25:12;;;;;;;0.00;0.00;;;21.40;48.20;;;;;;5034772;28;20216;-56
2023/11/05 04:27:42;;;;;;;0.10;0.10;;;21.40;48.20;;;;;;5035166;28;20673;-49
2023/11/05 04:30:14;;;;;;;0.00;0.00;;;21.40;48.20;;;;;;5028932;28;20204;-52
2023/11/05 04:32:46;;;;;;;0.00;0.00;;;21.40;48.20;;;;;;5014881;28;20224;-56
2023/11/05 04:35:17;;;;;;;0.05;0.05;;;21.30;48.20;;;;;;5015453;28;20252;-54
2023/11/05 04:37:47;;;;;;;0.00;0.00;;;21.30;48.20;;;;;;5015254;28;20200;-53
2023/11/05 04:40:20;;;;;;;0.00;0.00;;;21.30;48.20;;;;;;5014662;28;20201;-55
2023/11/05 04:42:51;;;;;;;0.00;0.00;;;21.30;48.30;;;;;;5015313;28;20208;-55
2023/11/05 04:45:22;;;;;;;0.00;0.00;;;21.30;48.30;;;;;;5014606;28;20259;-54
2023/11/05 04:47:52;;;;;;;0.10;0.10;;;21.20;48.30;;;;;;5014462;28;20234;-56
2023/11/05 04:50:23;;;;;;;0.00;0.00;;;21.20;48.30;;;;;;5014776;28;20201;-55
2023/11/05 04:52:56;;;;;;;0.00;0.00;;;21.20;48.30;;;;;;5014979;28;20228;-52
2023/11/05 04:55:28;;;;;;;0.10;0.10;;;21.20;48.30;;;;;;5014359;28;20217;-56
2023/11/05 04:57:59;;;;;;;0.05;0.05;;;21.20;48.30;;;;;;5014809;28;20200;-55
2023/11/05 05:00:30;;;;;;;0.00;0.00;;;21.20;48.30;;;;;;5014425;28;20564;-57
2023/11/05 05:03:01;;;;;;;0.00;0.00;;;21.20;48.30;;;;;;5014835;28;20235;-56
2023/11/05 05:05:32;;;;;;;0.00;0.00;;;21.10;48.30;;;;;;5015829;28;20270;-56
2023/11/05 05:08:03;;;;;;;0.10;0.10;;;21.10;48.20;;;;;;4995018;28;20293;-56
2023/11/05 05:10:35;;;;;;;0.00;0.00;;;21.10;48.30;;;;;;4994633;28;20208;-54
2023/11/05 05:13:06;;;;;;;0.10;0.10;;;21.10;48.30;;;;;;4994973;28;20225;-56
2023/11/05 05:15:37;;;;;;;0.00;0.00;;;21.10;48.30;;;;;;4994739;28;20282;-55
2023/11/05 05:18:08;;;;;;;0.00;0.00;;;21.10;48.30;;;;;;4994966;28;20203;-56
2023/11/05 05:20:39;;;;;;;0.10;0.10;;;21.10;48.30;;;;;;4994932;28;20202;-56
2023/11/05 05:23:09;;;;;;;0.00;0.00;;;21.00;48.30;;;;;;4994461;28;20205;-54
2023/11/05 05:25:42;;;;;;;0.10;0.10;;;21.00;48.30;;;;;;4994667;28;20204;-55
2023/11/05 05:28:13;;;;;;;0.00;0.00;;;21.00;48.40;;;;;;4994574;28;20205;-55
2023/11/05 05:30:43;;;;;;;0.00;0.00;;;21.00;48.40;;;;;;5004832;28;20200;-56
2023/11/05 05:33:14;;;;;;;0.10;0.10;;;21.00;48.40;;;;;;5014346;28;20221;-54
2023/11/05 05:35:44;;;;;;;0.00;0.00;;;21.00;48.40;;;;;;5014109;28;20607;-53
2023/11/05 05:38:15;;;;;;;0.00;0.00;;;21.00;48.40;;;;;;5012978;28;20231;-53
2023/11/05 05:40:48;;;;;;;0.00;0.00;;;20.90;48.40;;;;;;5013784;28;20197;-54
2023/11/05 05:43:18;;;;;;;0.00;0.00;;;20.90;48.40;;;;;;5013768;28;20208;-55
2023/11/05 05:45:49;;;;;;;0.00;0.00;;;20.90;48.40;;;;;;5013574;28;20193;-55
2023/11/05 05:48:20;;;;;;;0.00;0.00;;;20.90;48.40;;;;;;5013856;28;20204;-56
2023/11/05 05:50:50;;;;;;;0.00;0.00;;;20.90;48.40;;;;;;5013648;28;20200;-53
2023/11/05 05:53:21;;;;;;;0.00;0.00;;;20.90;48.40;;;;;;5012407;28;20220;-56
2023/11/05 05:55:54;;;;;;;0.00;0.00;;;20.90;48.40;;;;;;5013126;28;20200;-56
2023/11/05 05:58:25;;;;;;;0.05;0.05;;;20.80;48.40;;;;;;5032832;28;20680;-56
2023/11/05 06:00:55;;;;;;;0.10;0.10;;;20.80;48.40;;;;;;5021399;28;20205;-53
2023/11/05 06:03:26;;;;;;;0.10;0.10;;;20.80;48.40;;;;;;5013467;28;20583;-56
2023/11/05 06:05:57;;;;;;;0.10;0.10;;;20.80;48.40;;;;;;5013898;28;20196;-56
2023/11/05 06:08:28;;;;;;;0.00;0.00;;;20.80;48.50;;;;;;5012912;28;20200;-58
2023/11/05 06:11:00;;;;;;;0.05;0.05;;;20.80;48.50;;;;;;5013722;28;20236;-54
2023/11/05 06:13:31;;;;;;;0.00;0.00;;;20.70;48.50;;;;;;5013681;28;20224;-56
2023/11/05 06:16:02;;;;;;;0.10;0.10;;;20.70;48.50;;;;;;5013233;28;20564;-56
2023/11/05 06:18:33;;;;;;;0.00;0.00;;;20.70;48.50;;;;;;5012682;28;20676;-55
2023/11/05 06:21:03;;;;;;;0.00;0.00;;;20.70;48.50;;;;;;5019035;28;20242;-56
2023/11/05 06:23:34;;;;;;;0.00;0.00;;;20.70;48.50;;;;;;5031957;28;20239;-56
2023/11/05 06:26:06;;;;;;;0.05;0.05;;;20.70;48.50;;;;;;5032958;28;20648;-53
2023/11/05 06:28:37;;;;;;;0.10;0.10;;;20.70;48.50;;;;;;5032890;28;20196;-56
2023/11/05 06:31:08;;;;;;;0.00;0.00;;;20.60;48.40;;;;;;5018873;28;20205;-56
2023/11/05 06:33:38;;;;;;;0.08;0.08;;;20.60;48.40;;;;;;5013306;28;20233;-56
2023/11/05 06:36:10;;;;;;;0.00;0.00;;;20.60;48.40;;;;;;5013145;28;20207;-53
2023/11/05 06:38:41;;;;;;;0.00;0.00;;;20.60;48.50;;;;;;5012215;28;20205;-48
2023/11/05 06:41:14;;;;;;;0.03;0.03;;;20.60;48.40;;;;;;5012319;28;20661;-51
2023/11/05 06:43:44;;;;;;;0.00;0.00;;;20.60;48.40;;;;;;5012542;28;20728;-52
2023/11/05 06:46:15;;;;;;;0.00;0.00;;;20.50;48.40;;;;;;5002759;28;20204;-56
2023/11/05 06:48:45;;;;;;;0.00;0.00;;;20.50;48.40;;;;;;4993022;28;20202;-54
2023/11/05 06:51:16;;;;;;;0.10;0.10;;;20.50;48.50;;;;;;4992993;28;20209;-56
2023/11/05 06:53:47;;;;;;;0.03;0.03;;;20.50;48.50;;;;;;5000246;28;20233;-56
2023/11/05 06:56:19;;;;;;;0.03;0.03;;;20.50;48.50;;;;;;5012544;28;20204;-55
2023/11/05 06:58:50;;;;;;;0.10;0.10;;;20.50;48.60;;;;;;5012584;28;20208;-55
2023/11/05 07:01:20;;;;;;;0.00;0.00;;;20.50;48.60;;;;;;5012340;28;20657;-55
2023/11/05 07:03:51;;;;;;;0.00;0.00;;;20.40;48.50;;;;;;5006449;28;20220;-53
2023/11/05 07:06:22;;;;;;;0.00;0.00;;;20.40;48.50;;;;;;5001443;28;20201;-54
2023/11/05 07:08:52;;;;;;;0.00;0.00;;;20.40;48.50;;;;;;5002744;28;20193;-56
2023/11/05 07:11:26;;;;;;;0.00;0.00;;;20.40;48.50;;;;;;5012314;28;20201;-54
2023/11/05 07:13:58;;;;;;;0.00;0.00;;;20.40;48.50;;;;;;5011334;28;20227;-52
2023/11/05 07:16:28;;;;;;;0.10;0.10;;;20.40;48.50;;;;;;5011480;28;20192;-52
2023/11/05 07:18:59;;;;;;;0.10;0.10;;;20.40;48.50;;;;;;5010685;28;20197;-48
2023/11/05 07:21:30;;;;;;;0.00;0.00;;;20.40;48.50;;;;;;5004927;28;20194;-53
2023/11/05 07:24:00;;;;;;;0.00;0.00;;;20.30;48.40;;;;;;5002560;28;20217;-56
2023/11/05 07:26:33;;;;;;;0.00;0.00;;;20.30;48.50;;;;;;5011309;28;20200;-56
2023/11/05 07:29:03;;;;;;;0.00;0.00;;;20.30;48.40;;;;;;5011492;28;20200;-52
2023/11/05 07:31:34;;;;;;;0.00;0.00;;;20.30;48.40;;;;;;5011158;28;20201;-49
2023/11/05 07:34:05;;;;;;;0.00;0.00;;;20.30;48.40;;;;;;5011533;28;20318;-57
2023/11/05 07:36:36;;;;;;;0.00;0.00;;;20.30;48.40;;;;;;5011219;28;20197;-52
2023/11/05 07:39:09;;;;;;;0.00;0.00;;;20.20;48.40;;;;;;5011021;28;20580;-50
2023/11/05 07:41:41;;;;;;;0.05;0.05;;;20.20;48.40;;;;;;5010747;28;20200;-51
2023/11/05 07:44:12;;;;;;;0.00;0.00;;;20.20;48.40;;;;;;5010520;28;20213;-48
2023/11/05 07:46:43;;;;;;;0.10;0.10;;;20.20;48.40;;;;;;5011068;28;20209;-55
2023/11/05 07:49:13;;;;;;;0.00;0.00;;;20.20;48.40;;;;;;5011635;28;20193;-51
2023/11/05 07:51:44;;;;;;;0.00;0.00;;;20.20;48.50;;;;;;5010352;28;20204;-56
2023/11/05 07:54:15;;;;;;;0.10;0.10;;;20.10;48.40;;;;;;5010007;28;20217;-49
2023/11/05 07:56:52;;;;;;;0.10;0.10;;;20.10;48.40;;;;;;5010883;28;20726;-47
2023/11/05 07:59:23;;;;;;;0.10;0.10;;;20.10;48.40;;;;;;5009130;28;20197;-56
2023/11/05 08:01:55;;;;;;;0.10;0.10;;;20.10;48.40;;;;;;5030412;28;20275;-57
2023/11/05 08:04:25;;;;;;;0.10;0.10;;;20.10;48.50;;;;;;5017150;28;20222;-57
2023/11/05 08:06:56;;;;;;;0.10;0.10;;;20.10;48.50;;;;;;5009701;28;20677;-55
2023/11/05 08:09:27;;;;;;;0.05;0.05;;;20.00;49.00;;;;;;5010557;28;20196;-53
2023/11/05 08:12:02;;;;;;;0.03;0.03;;;20.10;48.50;;;;;;5010741;28;20185;-52
2023/11/05 08:14:32;;;;;;;0.10;0.10;;;20.00;48.50;;;;;;5011078;28;20238;-54
2023/11/05 08:17:03;;;;;;;0.00;0.00;;;20.00;48.50;;;;;;5011693;28;20204;-56
2023/11/05 08:19:33;;;;;;;0.00;0.00;;;20.00;48.50;;;;;;5010790;28;20200;-52
2023/11/05 08:22:05;;;;;;;0.00;0.00;;;20.00;48.50;;;;;;5010247;28;20197;-52
2023/11/05 08:24:36;;;;;;;0.00;0.00;;;20.00;48.50;;;;;;5025282;28;20219;-48
2023/11/05 08:27:10;;;;;;;0.00;0.00;;;20.00;48.50;;;;;;5010753;28;20236;-54
2023/11/05 08:29:43;;;;;;;0.10;0.10;;;20.00;48.60;;;;;;5011623;28;20271;-57
2023/11/05 08:32:17;;;;;;;0.10;0.10;;;20.00;48.60;;;;;;5011079;28;20228;-56
2023/11/05 08:34:48;;;;;;;0.00;0.00;;;20.00;48.60;;;;;;5010570;28;20243;-55
2023/11/05 08:37:18;;;;;;;0.00;0.00;;;19.90;48.50;;;;;;5010251;28;20645;-54
2023/11/05 08:39:50;;;;;;;0.08;0.08;;;19.90;48.50;;;;;;5010023;28;20204;-55
2023/11/05 08:42:23;;;;;;;0.10;0.10;;;19.90;48.60;;;;;;5009833;28;20224;-55
2023/11/05 08:44:54;;;;;;;0.00;0.00;;;19.90;48.60;;;;;;5010097;28;20223;-51
2023/11/05 08:47:24;;;;;;;0.00;0.00;;;19.90;48.60;;;;;;5010533;28;20226;-54
2023/11/05 08:49:55;;;;;;;0.10;0.10;;;19.90;48.60;;;;;;5009417;28;20193;-53
2023/11/05 08:52:26;;;;;;;0.10;0.10;;;19.90;48.60;;;;;;5010312;28;20595;-55
2023/11/05 08:54:56;;;;;;;0.00;0.00;;;19.90;48.60;;;;;;5008956;28;20430;-53
2023/11/05 08:57:29;;;;;;;0.08;0.08;;;19.90;48.60;;;;;;5009279;28;20251;-55
2023/11/05 09:00:00;;;;;;;0.00;0.00;;;19.80;48.60;;;;;;5009614;28;20235;-55
2023/11/05 09:02:31;;;;;;;0.00;0.00;;;19.80;48.60;;;;;;5009083;28;20652;-53
2023/11/05 09:05:01;;;;;;;0.10;0.10;;;19.80;48.60;;;;;;5011073;28;20220;-52
2023/11/05 09:07:32;;;;;;;0.00;0.00;;;19.80;48.60;;;;;;5012519;28;20193;-53
2023/11/05 09:10:03;;;;;;;0.00;0.00;;;19.80;48.60;;;;;;5013007;28;20188;-46
2023/11/05 09:12:35;;;;;;;0.03;0.03;;;19.80;48.60;;;;;;5012879;28;20197;-46
2023/11/05 09:15:07;;;;;;;0.00;0.00;;;19.80;48.60;;;;;;5018730;28;20216;-45
2023/11/05 09:17:37;;;;;;;0.00;0.00;;;19.80;48.60;;;;;;5014422;28;20208;-45
2023/11/05 09:20:09;;;;;;;0.00;0.00;;;19.80;48.60;;;;;;5012397;28;20197;-47
2023/11/05 09:22:41;;;;;;;0.00;0.00;;;19.80;48.60;;;;;;5013342;28;20573;-44
2023/11/05 09:25:12;;;;;;;0.00;0.00;;;19.80;48.60;;;;;;5013395;28;20220;-48
2023/11/05 09:27:45;;;;;;;0.08;0.08;;;19.70;48.60;;;;;;5013560;28;20564;-44
2023/11/05 09:30:16;;;;;;;0.00;0.00;;;19.80;48.60;;;;;;5013176;28;20236;-48
2023/11/05 09:32:46;;;;;;;0.00;0.00;;;19.70;48.60;;;;;;5013211;28;20192;-45
2023/11/05 09:35:17;;;;;;;0.00;0.00;;;19.70;48.60;;;;;;4929638;28;2447205;-47
2023/11/05 09:37:48;;;;;;;0.00;0.00;;;19.70;48.60;;;;;;5014035;28;20545;-45
2023/11/05 09:40:19;;;;;;;0.00;0.00;;;19.70;48.60;;;;;;5013817;28;20724;-49
2023/11/05 09:43:01;;;;;;;0.00;0.00;;;19.70;48.60;;;;;;5014250;28;20582;-48
2023/11/05 09:45:33;;;;;;;0.00;0.00;;;19.70;48.70;;;;;;5014236;28;20223;-50
2023/11/05 09:48:05;;;;;;;0.00;0.00;;;19.60;48.60;;;;;;5013500;28;20196;-49
2023/11/05 09:50:37;;;;;;;0.00;0.00;;;19.60;48.60;;;;;;5013496;28;20676;-49
2023/11/05 09:53:10;;;;;;;0.10;0.10;;;19.60;48.60;;;;;;5013502;28;20220;-45
2023/11/05 09:55:41;;;;;;;0.10;0.10;;;19.60;48.60;;;;;;5013336;28;20228;-46
2023/11/05 09:58:15;;;;;;;0.00;0.00;;;19.60;48.60;;;;;;5014136;28;20243;-48
2023/11/05 10:00:48;;;;;;;0.00;0.00;;;19.60;48.60;;;;;;5014961;28;20656;-49
2023/11/05 10:03:18;;;;;;;0.00;0.00;;;19.60;48.60;;;;;;5030083;28;20254;-48
2023/11/05 10:05:49;;;;;;;0.00;0.00;;;19.60;48.60;;;;;;5033706;28;20575;-50
2023/11/05 10:08:20;;;;;;;0.00;0.00;;;19.50;48.60;;;;;;5033432;28;20205;-45
2023/11/05 10:10:52;;;;;;;0.00;0.00;;;19.60;48.60;;;;;;5033361;28;20192;-44
2023/11/05 10:13:27;;;;;;;0.00;0.00;;;19.50;48.60;;;;;;5033503;28;20203;-52
2023/11/05 10:16:01;;;;;;;0.00;0.00;;;19.50;48.60;;;;;;5032255;28;20609;-53
2023/11/05 10:18:35;;;;;;;0.00;0.00;;;19.50;48.60;;;;;;5032676;28;20749;-51
2023/11/05 10:21:07;;;;;;;0.00;0.00;;;19.50;48.60;;;;;;5032766;28;20207;-46
2023/11/05 10:23:54;;;;;;;0.00;0.00;;;19.50;48.60;;;;;;5033148;28;20660;-48
2023/11/05 10:26:31;;;;;;;0.10;0.10;;;19.50;48.60;;;;;;5032790;28;20231;-46
2023/11/05 10:29:05;;;;;;;0.00;0.00;;;19.40;48.60;;;;;;5032246;28;20188;-45
2023/11/05 10:31:36;;;;;;;0.10;0.10;;;19.50;48.60;;;;;;5015347;28;20675;-48
2023/11/05 10:34:09;;;;;;;0.00;0.00;;;19.40;48.60;;;;;;5012906;28;20229;-45
2023/11/05 10:36:39;;;;;;;0.10;0.10;;;19.40;48.60;;;;;;5012657;28;20200;-47
2023/11/05 10:39:10;;;;;;;0.00;0.00;;;19.40;48.60;;;;;;5012453;28;20197;-46
2023/11/05 10:41:42;;;;;;;0.08;0.08;;;19.40;48.70;;;;;;5012467;28;20215;-46
2023/11/05 10:44:15;;;;;;;0.00;0.00;;;19.40;48.60;;;;;;5012985;28;20221;-45
2023/11/05 10:46:47;;;;;;;0.03;0.03;;;19.40;48.60;;;;;;5012956;28;20197;-46
2023/11/05 10:49:18;;;;;;;0.00;0.00;;;19.40;48.60;;;;;;5012820;28;20196;-47
2023/11/05 10:51:49;;;;;;;0.00;0.00;;;19.40;48.70;;;;;;5012837;28;20263;-44
2023/11/05 10:54:20;;;;;;;0.10;0.10;;;19.30;48.60;;;;;;5012263;28;20243;-44
2023/11/05 10:56:51;;;;;;;0.08;0.08;;;19.30;48.70;;;;;;5012118;28;20204;-46
2023/11/05 10:59:38;;;;;;;0.10;0.10;;;19.30;48.70;;;;;;5012901;28;20327;-45
2023/11/05 11:02:09;;;;;;;0.00;0.00;;;19.30;48.70;;;;;;5012939;28;20197;-46
2023/11/05 11:04:41;;;;;;;0.00;0.00;;;19.30;48.60;;;;;;5012603;28;20217;-52
2023/11/05 11:07:14;;;;;;;0.00;0.00;;;19.30;48.70;;;;;;5012506;28;20204;-48
2023/11/05 11:09:44;;;;;;;0.00;0.00;;;19.30;48.70;;;;;;5012838;28;20204;-46
2023/11/05 11:12:34;;;;;;;0.03;0.03;;;19.30;48.70;;;;;;5014430;28;20660;-52
2023/11/05 11:15:10;;;;;;;0.00;0.00;;;19.30;48.70;;;;;;5007944;28;20224;-45
2023/11/05 11:17:42;;;;;;;0.10;0.10;;;19.30;48.70;;;;;;5012338;28;20282;-47
2023/11/05 11:20:15;;;;;;;0.00;0.00;;;19.20;48.60;;;;;;5011997;28;20203;-53
2023/11/05 11:22:46;;;;;;;0.10;0.10;;;19.20;48.70;;;;;;5012361;28;20201;-50
2023/11/05 11:25:17;;;;;;;0.10;0.10;;;19.20;48.60;;;;;;5011848;28;20739;-45
2023/11/05 11:27:52;;;;;;;0.10;0.10;;;19.20;48.70;;;;;;5011603;28;20239;-48
2023/11/05 11:30:25;;;;;;;0.10;0.10;;;19.20;48.70;;;;;;5011645;28;20230;-50
2023/11/05 11:32:56;;;;;;;0.00;0.00;;;19.20;48.70;;;;;;5012385;28;20201;-46
2023/11/05 11:35:26;;;;;;;0.10;0.10;;;19.20;48.70;;;;;;5012647;28;20235;-44
2023/11/05 11:38:01;;;;;;;0.00;0.00;;;19.20;48.70;;;;;;5011997;28;20197;-46
2023/11/05 11:40:31;;;;;;;0.00;0.00;;;19.20;48.70;;;;;;5011733;28;20232;-44
2023/11/05 11:43:02;;;;;;;0.10;0.10;;;19.20;48.70;;;;;;5012119;28;20764;-47
2023/11/05 11:45:34;;;;;;;0.08;0.08;;;19.20;48.70;;;;;;5011847;28;20225;-51
2023/11/05 11:48:08;;;;;;;0.10;0.10;;;19.20;48.70;;;;;;5011422;28;20193;-49
2023/11/05 11:50:50;;;;;;;0.00;0.00;;;19.20;48.70;;;;;;5011621;28;20201;-45
2023/11/05 11:53:31;;;;;;;0.10;0.10;;;19.10;48.70;;;;;;5011960;28;20760;-52
2023/11/05 11:56:02;;;;;;;0.10;0.10;;;19.10;48.70;;;;;;5011918;28;20233;-48
2023/11/05 11:58:37;;;;;;;0.00;0.00;;;19.10;48.70;;;;;;5011789;28;20203;-50
2023/11/05 12:01:15;;;;;;;0.10;0.10;;;19.10;48.70;;;;;;5011428;28;20211;-48
2023/11/05 12:03:46;;;;;;;0.00;0.00;;;19.10;48.70;;;;;;5011510;28;20196;-49
2023/11/05 12:06:17;;;;;;;0.10;0.10;;;19.10;48.70;;;;;;5030703;28;20196;-49
2023/11/05 12:08:49;;;;;;;0.10;0.10;;;19.10;48.70;;;;;;5031358;28;20196;-50
2023/11/05 12:11:20;;;;;;;0.10;0.10;;;19.10;48.70;;;;;;5031482;28;20204;-50
2023/11/05 12:13:51;;;;;;;0.10;0.10;;;19.00;48.70;;;;;;5031226;28;20308;-51
2023/11/05 12:16:23;;;;;;;0.00;0.00;;;19.00;48.70;;;;;;5031510;28;20223;-49
2023/11/05 12:18:55;;;;;;;0.10;0.10;;;19.00;48.70;;;;;;5031609;28;20231;-50
2023/11/05 12:21:25;;;;;;;0.10;0.10;;;19.00;48.70;;;;;;5031468;28;20483;-53
2023/11/05 12:23:56;;;;;;;0.00;0.00;;;19.00;48.70;;;;;;5031047;28;20220;-50
2023/11/05 12:26:28;;;;;;;0.10;0.10;;;19.00;48.70;;;;;;5030961;28;20197;-50
2023/11/05 12:28:59;;;;;;;0.10;0.10;;;19.00;48.80;;;;;;5031372;28;20203;-51
2023/11/05 12:31:32;;;;;;;0.10;0.10;;;19.00;48.80;;;;;;5014449;28;20204;-51
2023/11/05 12:34:03;;;;;;;0.00;0.00;;;19.00;48.80;;;;;;5011668;28;20713;-51
2023/11/05 12:36:34;;;;;;;0.05;0.05;;;18.90;48.70;;;;;;5011528;28;20228;-49
2023/11/05 12:39:05;;;;;;;0.10;0.10;;;18.90;48.70;;;;;;5012365;28;20207;-51
2023/11/05 12:41:36;;;;;;;0.05;0.05;;;18.90;48.70;;;;;;5015254;28;20233;-51
2023/11/05 12:44:07;;;;;;;0.00;0.00;;;18.90;48.70;;;;;;5015549;28;20248;-52
2023/11/05 12:46:40;;;;;;;0.00;0.00;;;18.90;48.70;;;;;;5015251;28;20228;-49
2023/11/05 12:49:10;;;;;;;0.00;0.00;;;18.90;48.80;;;;;;5014854;28;20629;-51
2023/11/05 12:51:41;;;;;;;0.00;0.00;;;18.90;48.70;;;;;;5015157;28;20220;-50
2023/11/05 12:54:12;;;;;;;0.00;0.00;;;18.90;48.80;;;;;;5015012;28;20220;-46
2023/11/05 12:56:42;;;;;;;0.00;0.00;;;18.90;48.80;;;;;;5014991;28;20229;-46
2023/11/05 12:59:13;;;;;;;0.00;0.00;;;18.90;48.80;;;;;;5015140;28;20200;-47
2023/11/05 13:01:45;;;;;;;0.00;0.00;;;18.90;48.80;;;;;;5015325;28;20235;-51
2023/11/05 13:04:16;;;;;;;0.03;0.03;;;18.80;48.80;;;;;;5014524;28;20472;-48
2023/11/05 13:06:47;;;;;;;0.00;0.00;;;18.80;48.80;;;;;;5014615;28;20212;-46
2023/11/05 13:09:18;;;;;;;0.00;0.00;;;18.80;48.80;;;;;;5014496;28;20556;-46